Time;durP1;ratioP1;P1;durP2;ratioP2;P2;SDS_P1;SDS_P2;PMS_P1;PMS_P2;Temp;Humidity;BMP_temperature;BMP_pressure;BME280_temperature;BME280_humidity;BME280_pressure;Samples;Min_cycle;Max_cycle;Signal;HPM_P1;HPM_P2
2023/06/26 00:00:48;;;;;;;1.83;1.70;;;24.70;70.40;;;;;;5029167;28;43500;-79
2023/06/26 00:03:16;;;;;;;1.63;1.63;;;24.60;70.40;;;;;;5030122;28;45819;-75
2023/06/26 00:05:50;;;;;;;1.70;1.70;;;24.60;70.60;;;;;;5029613;28;44701;-75
2023/06/26 00:08:19;;;;;;;1.67;1.67;;;24.60;70.80;;;;;;5046327;28;43547;-75
2023/06/26 00:10:58;;;;;;;1.50;1.50;;;24.50;70.80;;;;;;5033942;28;43606;-74
2023/06/26 00:13:41;;;;;;;1.60;1.60;;;24.50;70.90;;;;;;5034787;28;45452;-77
2023/06/26 00:16:10;;;;;;;1.50;1.50;;;24.50;70.90;;;;;;5047004;28;43468;-77
2023/06/26 00:18:42;;;;;;;1.60;1.60;;;24.50;71.10;;;;;;5046599;28;43463;-74
2023/06/26 00:21:12;;;;;;;1.70;1.70;;;24.50;71.20;;;;;;5047507;28;43428;-75
2023/06/26 00:23:43;;;;;;;1.50;1.50;;;24.50;71.10;;;;;;5046520;28;43591;-77
2023/06/26 00:26:12;;;;;;;1.58;1.58;;;24.50;70.90;;;;;;5030943;28;44659;-76
2023/06/26 00:28:43;;;;;;;1.53;1.53;;;24.70;70.60;;;;;;5044804;28;43937;-74
2023/06/26 00:31:16;;;;;;;1.53;1.53;;;24.80;70.20;;;;;;5039980;28;44102;-77
2023/06/26 00:33:48;;;;;;;1.50;1.50;;;24.80;70.00;;;;;;5030142;28;45611;-75
2023/06/26 00:36:18;;;;;;;1.70;1.70;;;24.80;70.10;;;;;;5049065;28;43402;-75
2023/06/26 00:38:47;;;;;;;1.60;1.60;;;24.70;70.30;;;;;;5030972;28;43384;-75
2023/06/26 00:41:15;;;;;;;1.70;1.70;;;24.70;70.50;;;;;;5046800;28;43444;-74
2023/06/26 00:43:46;;;;;;;1.97;1.97;;;24.70;70.60;;;;;;5029731;28;45834;-75
2023/06/26 00:46:14;;;;;;;1.52;1.52;;;24.60;70.60;;;;;;5028143;28;44961;-76
2023/06/26 00:48:46;;;;;;;1.60;1.60;;;24.60;70.90;;;;;;5045358;28;43399;-76
2023/06/26 00:51:14;;;;;;;1.60;1.60;;;24.50;71.60;;;;;;5030634;28;43388;-76
2023/06/26 00:53:47;;;;;;;1.67;1.67;;;24.50;70.90;;;;;;5029283;28;45418;-74
2023/06/26 00:56:15;;;;;;;1.60;1.60;;;24.50;70.90;;;;;;5027333;28;44380;-75
2023/06/26 00:58:48;;;;;;;1.60;1.60;;;24.50;71.80;;;;;;5028284;28;43423;-75
2023/06/26 01:01:17;;;;;;;1.80;1.80;;;24.50;71.10;;;;;;5031013;28;43416;-77
2023/06/26 01:03:46;;;;;;;1.67;1.67;;;24.50;71.10;;;;;;5033173;22;45697;-73
2023/06/26 01:06:15;;;;;;;1.60;1.60;;;24.60;70.90;;;;;;5024632;28;44652;-74
2023/06/26 01:08:48;;;;;;;1.67;1.67;;;24.70;70.40;;;;;;5026168;28;43377;-74
2023/06/26 01:11:18;;;;;;;1.73;1.73;;;24.80;70.10;;;;;;5020214;28;43544;-73
2023/06/26 01:13:46;;;;;;;1.77;1.77;;;24.80;69.80;;;;;;5023349;28;43603;-74
2023/06/26 01:16:14;;;;;;;1.60;1.60;;;24.80;70.00;;;;;;5024747;28;43497;-74
2023/06/26 01:18:45;;;;;;;1.80;1.80;;;24.80;70.20;;;;;;5021690;28;43373;-73
2023/06/26 01:21:14;;;;;;;1.63;1.63;;;24.70;70.30;;;;;;5059035;28;43461;-74
2023/06/26 01:23:50;;;;;;;1.70;1.70;;;24.70;70.30;;;;;;5023770;28;43610;-73
2023/06/26 01:26:21;;;;;;;1.73;1.73;;;24.70;70.60;;;;;;5025165;28;43843;-74
2023/06/26 01:28:50;;;;;;;1.70;1.70;;;24.60;70.70;;;;;;5021013;28;43378;-75
2023/06/26 01:31:18;;;;;;;1.70;1.70;;;24.50;70.80;;;;;;5018896;28;43630;-74
2023/06/26 01:33:48;;;;;;;1.70;1.70;;;24.50;70.70;;;;;;5021620;28;43890;-74
2023/06/26 01:36:16;;;;;;;1.70;1.70;;;24.50;70.80;;;;;;5028389;28;43372;-74
2023/06/26 01:38:48;;;;;;;1.90;1.90;;;24.50;70.90;;;;;;5027112;28;43416;-74
2023/06/26 01:41:17;;;;;;;1.73;1.73;;;24.50;71.10;;;;;;5039713;28;43420;-74
2023/06/26 01:44:02;;;;;;;1.70;1.70;;;24.50;71.10;;;;;;5024829;28;45678;-75
2023/06/26 01:46:38;;;;;;;1.83;1.83;;;24.50;71.00;;;;;;5024873;28;43401;-71
2023/06/26 01:49:12;;;;;;;1.70;1.70;;;24.50;71.00;;;;;;5029156;28;43404;-72
2023/06/26 01:51:46;;;;;;;1.73;1.73;;;24.50;71.20;;;;;;5028756;28;43595;-72
2023/06/26 01:54:17;;;;;;;1.67;1.67;;;24.50;71.20;;;;;;5025021;28;43615;-75
2023/06/26 01:56:53;;;;;;;1.80;1.80;;;24.60;71.00;;;;;;5028306;28;44866;-74
2023/06/26 01:59:22;;;;;;;1.93;1.93;;;24.70;70.60;;;;;;5030116;28;43422;-74
2023/06/26 02:01:57;;;;;;;1.90;1.90;;;24.80;70.20;;;;;;5047179;28;43414;-74
2023/06/26 02:04:31;;;;;;;1.63;1.63;;;24.80;70.00;;;;;;5049857;28;43875;-74
2023/06/26 02:07:00;;;;;;;1.77;1.77;;;24.80;70.00;;;;;;5050357;28;43964;-72
2023/06/26 02:09:34;;;;;;;1.80;1.80;;;24.80;70.30;;;;;;5031706;28;43529;-75
2023/06/26 02:12:08;;;;;;;1.60;1.60;;;24.70;70.40;;;;;;5029571;28;43971;-73
2023/06/26 02:14:40;;;;;;;1.70;1.70;;;24.70;71.00;;;;;;5031599;28;45860;-74
2023/06/26 02:17:12;;;;;;;1.80;1.80;;;24.70;71.20;;;;;;5058484;28;43941;-73
2023/06/26 02:19:48;;;;;;;1.73;1.73;;;24.60;70.60;;;;;;5049775;28;44150;-76
2023/06/26 02:22:17;;;;;;;1.90;1.90;;;24.60;70.90;;;;;;5032341;28;43609;-75
2023/06/26 02:24:46;;;;;;;1.90;1.90;;;24.60;70.70;;;;;;5044994;28;43746;-72
2023/06/26 02:27:14;;;;;;;1.85;1.85;;;24.70;70.50;;;;;;5057468;28;45016;-75
2023/06/26 02:29:48;;;;;;;1.75;1.75;;;24.70;70.20;;;;;;5049784;28;43417;-74
2023/06/26 02:32:16;;;;;;;2.07;2.07;;;24.70;70.30;;;;;;5044304;28;43420;-74
2023/06/26 02:34:49;;;;;;;1.77;1.77;;;24.70;70.40;;;;;;5049413;28;43600;-75
2023/06/26 02:37:17;;;;;;;1.80;1.80;;;24.70;70.60;;;;;;5051906;28;43543;-73
2023/06/26 02:39:46;;;;;;;1.90;1.90;;;24.70;70.40;;;;;;5047551;28;43327;-74
2023/06/26 02:42:14;;;;;;;1.63;1.63;;;24.60;70.40;;;;;;5031306;28;43433;-74
2023/06/26 02:44:47;;;;;;;2.00;2.00;;;24.60;70.60;;;;;;5049109;28;43769;-74
2023/06/26 02:47:15;;;;;;;1.80;1.80;;;24.60;70.80;;;;;;5031618;28;44323;-74
2023/06/26 02:49:48;;;;;;;1.87;1.87;;;24.60;70.80;;;;;;5030980;28;43417;-77
2023/06/26 02:52:16;;;;;;;1.97;1.97;;;24.50;70.70;;;;;;5030362;28;43541;-72
2023/06/26 02:54:46;;;;;;;1.90;1.90;;;24.50;70.80;;;;;;5049116;28;43847;-72
2023/06/26 02:57:14;;;;;;;1.80;1.80;;;24.50;71.10;;;;;;5031029;28;44142;-72
2023/06/26 02:59:49;;;;;;;1.73;1.73;;;24.50;70.90;;;;;;5054300;28;43810;-73
2023/06/26 03:02:17;;;;;;;2.00;2.00;;;24.60;70.70;;;;;;5027398;28;43500;-72
2023/06/26 03:04:47;;;;;;;1.90;1.90;;;24.70;70.30;;;;;;5027359;28;45805;-73
2023/06/26 03:07:15;;;;;;;1.90;1.90;;;24.80;70.10;;;;;;5027530;28;43460;-75
2023/06/26 03:09:45;;;;;;;1.90;1.90;;;24.80;70.00;;;;;;5027702;28;43973;-72
2023/06/26 03:12:13;;;;;;;1.90;1.90;;;24.80;70.10;;;;;;5027334;28;43480;-73
2023/06/26 03:14:49;;;;;;;2.03;1.92;;;24.70;70.30;;;;;;5026994;28;45778;-74
2023/06/26 03:17:17;;;;;;;1.70;1.70;;;24.70;70.40;;;;;;5027472;28;44887;-73
2023/06/26 03:19:47;;;;;;;1.85;1.85;;;24.70;70.40;;;;;;5027205;28;43363;-73
2023/06/26 03:22:23;;;;;;;1.95;1.95;;;24.60;70.60;;;;;;5023570;28;43477;-74
2023/06/26 03:24:52;;;;;;;1.83;1.83;;;24.60;70.70;;;;;;5027146;28;45376;-74
2023/06/26 03:27:21;;;;;;;1.90;1.90;;;24.50;70.80;;;;;;5024854;28;44490;-73
2023/06/26 03:29:52;;;;;;;1.90;1.90;;;24.50;70.80;;;;;;5027212;28;43365;-73
2023/06/26 03:32:22;;;;;;;1.80;1.80;;;24.50;70.80;;;;;;5027693;28;43453;-74
2023/06/26 03:34:52;;;;;;;1.80;1.80;;;24.50;70.80;;;;;;5022924;28;44061;-74
2023/06/26 03:37:20;;;;;;;1.80;1.80;;;24.50;71.10;;;;;;5028552;28;43366;-74
2023/06/26 03:39:50;;;;;;;1.80;1.80;;;24.50;70.80;;;;;;5027040;28;43416;-73
2023/06/26 03:42:19;;;;;;;1.80;1.80;;;24.50;70.80;;;;;;5027435;28;43397;-72
2023/06/26 03:44:49;;;;;;;1.70;1.70;;;24.50;70.90;;;;;;5028006;28;44144;-73
2023/06/26 03:47:20;;;;;;;1.83;1.83;;;24.50;71.30;;;;;;5026736;28;45219;-75
2023/06/26 03:49:48;;;;;;;1.77;1.77;;;24.50;71.10;;;;;;5026715;28;43472;-75
2023/06/26 03:52:16;;;;;;;2.07;2.07;;;24.60;71.50;;;;;;5028681;28;43470;-73
2023/06/26 03:54:48;;;;;;;1.97;1.97;;;24.70;70.30;;;;;;5059588;28;43955;-77
2023/06/26 03:57:17;;;;;;;1.80;1.80;;;24.80;69.80;;;;;;5027915;28;43394;-76
2023/06/26 03:59:48;;;;;;;2.03;2.03;;;24.80;69.50;;;;;;5044644;28;43524;-74
2023/06/26 04:02:16;;;;;;;2.10;2.10;;;24.80;69.30;;;;;;5022530;28;43547;-77
2023/06/26 04:04:47;;;;;;;1.73;1.73;;;24.80;70.20;;;;;;5026110;28;45463;-75
2023/06/26 04:07:15;;;;;;;2.15;2.15;;;24.70;69.60;;;;;;5028780;28;45126;-75
2023/06/26 04:09:43;;;;;;;2.55;2.45;;;24.70;69.40;;;;;;5027722;28;43322;-76
2023/06/26 04:12:12;;;;;;;2.90;2.70;;;24.60;69.00;;;;;;5027250;28;43523;-73
2023/06/26 04:14:44;;;;;;;3.60;3.27;;;24.60;69.90;;;;;;5028737;28;43928;-76
2023/06/26 04:17:13;;;;;;;2.85;2.75;;;24.60;70.00;;;;;;5024669;28;43438;-74
2023/06/26 04:19:43;;;;;;;4.35;3.90;;;24.60;69.60;;;;;;5024372;28;43500;-75
2023/06/26 04:22:15;;;;;;;5.05;4.40;;;24.50;69.10;;;;;;5027446;28;43337;-77
2023/06/26 04:24:46;;;;;;;6.63;4.43;;;24.50;70.00;;;;;;5027281;28;44056;-74
2023/06/26 04:27:14;;;;;;;4.47;4.13;;;24.50;70.40;;;;;;5027777;28;43430;-78
2023/06/26 04:29:45;;;;;;;4.87;4.33;;;24.50;69.90;;;;;;5026476;28;43375;-74
2023/06/26 04:32:15;;;;;;;6.40;5.07;;;24.50;69.90;;;;;;5021606;28;43387;-78
2023/06/26 04:34:45;;;;;;;11.50;6.00;;;24.40;70.90;;;;;;5019721;28;45882;-77
2023/06/26 04:37:19;;;;;;;10.17;5.87;;;24.40;70.50;;;;;;5023300;28;43975;-76
2023/06/26 04:39:52;;;;;;;12.30;6.03;;;24.50;70.40;;;;;;5027707;28;43907;-76
2023/06/26 04:42:21;;;;;;;10.48;6.30;;;24.60;70.00;;;;;;5026185;28;43458;-75
2023/06/26 04:44:49;;;;;;;13.17;6.77;;;24.70;69.60;;;;;;5025979;28;45560;-76
2023/06/26 04:47:17;;;;;;;11.85;6.82;;;24.80;69.40;;;;;;5028144;28;44005;-78
2023/06/26 04:49:47;;;;;;;10.75;6.18;;;24.80;69.90;;;;;;5025932;28;43821;-78
2023/06/26 04:52:15;;;;;;;13.18;6.78;;;24.80;69.30;;;;;;5026423;28;43410;-76
2023/06/26 04:54:48;;;;;;;9.68;6.50;;;24.70;69.60;;;;;;5027314;28;43615;-77
2023/06/26 04:57:19;;;;;;;9.38;6.25;;;24.70;69.60;;;;;;5027672;28;43446;-76
2023/06/26 04:59:47;;;;;;;10.47;6.37;;;24.70;69.70;;;;;;5025774;28;43384;-79
2023/06/26 05:02:15;;;;;;;10.65;6.28;;;24.70;69.80;;;;;;5026010;28;44200;-76
2023/06/26 05:04:48;;;;;;;13.10;7.00;;;24.60;70.10;;;;;;5022185;28;46191;-78
2023/06/26 05:07:16;;;;;;;10.65;6.50;;;24.60;70.40;;;;;;5024856;28;43417;-75
2023/06/26 05:09:47;;;;;;;9.32;6.32;;;24.50;70.20;;;;;;5025675;28;43437;-77
2023/06/26 05:12:15;;;;;;;11.63;6.77;;;24.50;70.40;;;;;;5027500;28;43814;-77
2023/06/26 05:14:45;;;;;;;8.77;6.73;;;24.50;70.60;;;;;;5025744;28;46046;-77
2023/06/26 05:17:15;;;;;;;11.23;6.97;;;24.50;70.70;;;;;;5030920;28;43963;-77
2023/06/26 05:19:51;;;;;;;11.47;6.90;;;24.60;70.60;;;;;;5029235;28;43926;-78
2023/06/26 05:22:19;;;;;;;10.90;7.05;;;24.70;70.30;;;;;;5031390;28;43848;-75
2023/06/26 05:24:48;;;;;;;11.15;7.10;;;24.80;69.80;;;;;;5030589;28;43616;-75
2023/06/26 05:27:21;;;;;;;9.07;6.53;;;24.80;69.50;;;;;;5028254;28;44761;-78
2023/06/26 05:29:50;;;;;;;10.67;6.60;;;24.80;69.50;;;;;;5023034;28;44007;-77
2023/06/26 05:32:18;;;;;;;10.03;6.87;;;24.70;69.70;;;;;;5031027;28;43414;-78
2023/06/26 05:34:47;;;;;;;11.25;6.93;;;24.70;70.10;;;;;;5030621;28;43673;-75
2023/06/26 05:37:17;;;;;;;8.75;6.97;;;24.70;70.10;;;;;;5030702;28;43374;-78
2023/06/26 05:39:49;;;;;;;8.43;6.28;;;24.60;70.10;;;;;;5029169;28;43466;-77
2023/06/26 05:42:18;;;;;;;7.75;5.90;;;24.60;70.30;;;;;;5030568;28;43464;-76
2023/06/26 05:44:47;;;;;;;9.27;6.75;;;24.50;70.50;;;;;;5030246;28;43906;-76
2023/06/26 05:47:15;;;;;;;8.75;6.72;;;24.50;70.50;;;;;;5028896;28;43504;-76
2023/06/26 05:49:46;;;;;;;8.98;6.63;;;24.50;71.10;;;;;;5030280;28;43403;-78
2023/06/26 05:52:15;;;;;;;8.20;6.60;;;24.50;70.50;;;;;;5030693;28;43478;-78
2023/06/26 05:55:09;;;;;;;7.67;6.60;;;24.50;70.80;;;;;;5026982;28;45591;-75
2023/06/26 05:57:43;;;;;;;7.47;6.33;;;24.50;70.80;;;;;;5029640;28;43339;-78
2023/06/26 06:00:20;;;;;;;8.60;6.65;;;24.50;70.50;;;;;;5030270;28;43430;-76
2023/06/26 06:02:54;;;;;;;9.30;6.22;;;24.70;70.30;;;;;;5028170;28;43416;-76
2023/06/26 06:05:22;;;;;;;6.25;5.63;;;24.70;69.90;;;;;;5028592;28;46258;-77
2023/06/26 06:07:55;;;;;;;8.77;6.85;;;24.80;69.70;;;;;;5028411;28;44319;-74
2023/06/26 06:10:25;;;;;;;7.78;6.07;;;24.80;69.80;;;;;;5028475;28;43392;-77
2023/06/26 06:12:55;;;;;;;8.33;6.37;;;24.70;70.00;;;;;;5030227;28;44036;-75
2023/06/26 06:15:23;;;;;;;6.45;5.85;;;24.70;70.20;;;;;;5028741;28;45508;-77
2023/06/26 06:17:51;;;;;;;6.32;5.80;;;24.70;70.30;;;;;;5028544;28;45526;-76
2023/06/26 06:20:20;;;;;;;6.45;5.80;;;24.60;70.20;;;;;;5028236;28;43392;-76
2023/06/26 06:22:49;;;;;;;6.85;6.18;;;24.60;70.40;;;;;;5028518;28;43954;-76
2023/06/26 06:25:17;;;;;;;6.90;6.20;;;24.50;70.60;;;;;;5061885;28;45743;-75
2023/06/26 06:27:49;;;;;;;6.38;5.75;;;24.50;70.60;;;;;;5029593;28;43364;-78
2023/06/26 06:30:19;;;;;;;7.17;5.77;;;24.50;70.70;;;;;;5027805;28;43983;-74
2023/06/26 06:33:08;;;;;;;6.47;5.87;;;24.50;70.80;;;;;;5028715;28;43947;-76
2023/06/26 06:35:43;;;;;;;5.97;5.38;;;24.40;70.80;;;;;;5028163;28;45743;-77
2023/06/26 06:38:12;;;;;;;6.68;5.68;;;24.50;70.90;;;;;;5029145;28;44768;-77
2023/06/26 06:40:43;;;;;;;7.68;5.93;;;24.60;70.60;;;;;;5028035;28;43369;-76
2023/06/26 06:43:15;;;;;;;5.90;5.40;;;24.70;70.20;;;;;;5029924;28;43430;-76
2023/06/26 06:45:44;;;;;;;5.85;5.35;;;24.80;69.80;;;;;;5029470;28;44142;-77
2023/06/26 06:48:12;;;;;;;5.72;5.22;;;24.80;69.50;;;;;;5029151;28;43377;-77
2023/06/26 06:50:43;;;;;;;6.47;5.82;;;24.80;69.60;;;;;;5029312;28;43447;-77
2023/06/26 06:53:12;;;;;;;5.60;5.20;;;24.80;70.10;;;;;;5025278;28;43466;-76
2023/06/26 06:55:43;;;;;;;6.18;5.57;;;24.70;70.10;;;;;;5027819;28;46248;-77
2023/06/26 06:58:11;;;;;;;5.60;5.10;;;24.70;70.20;;;;;;5029057;28;43423;-76
2023/06/26 07:00:43;;;;;;;5.50;5.00;;;24.70;70.30;;;;;;5029089;28;43423;-76
2023/06/26 07:03:13;;;;;;;5.55;5.05;;;24.60;70.90;;;;;;5027766;28;43430;-74
2023/06/26 07:05:47;;;;;;;6.10;5.60;;;24.50;70.60;;;;;;5026426;28;43973;-76
2023/06/26 07:08:27;;;;;;;5.50;5.10;;;24.50;70.50;;;;;;5027158;28;43503;-75
2023/06/26 07:11:17;;;;;;;5.22;4.82;;;24.50;70.60;;;;;;5023200;28;43387;-76
2023/06/26 07:14:00;;;;;;;5.73;5.23;;;24.50;70.80;;;;;;5026249;28;43546;-77
2023/06/26 07:16:37;;;;;;;5.43;4.93;;;24.50;70.90;;;;;;5029095;28;45097;-77
2023/06/26 07:19:07;;;;;;;5.85;5.28;;;24.50;70.70;;;;;;5019575;28;44685;-77
2023/06/26 07:21:44;;;;;;;5.47;4.97;;;24.70;70.40;;;;;;5027754;28;43464;-77
2023/06/26 07:24:12;;;;;;;5.50;5.00;;;24.80;70.10;;;;;;5027946;28;43495;-76
2023/06/26 07:26:43;;;;;;;5.72;5.28;;;24.80;69.90;;;;;;5027420;28;46059;-77
2023/06/26 07:29:16;;;;;;;4.80;4.57;;;24.70;69.90;;;;;;5027237;28;45209;-77
2023/06/26 07:31:47;;;;;;;5.70;5.20;;;24.70;70.10;;;;;;5027482;28;43376;-77
2023/06/26 07:34:16;;;;;;;4.82;4.53;;;24.60;70.30;;;;;;5027676;28;44291;-77
2023/06/26 07:36:47;;;;;;;4.60;4.30;;;24.60;70.40;;;;;;5028583;28;45893;-77
2023/06/26 07:39:15;;;;;;;5.32;5.00;;;24.60;70.50;;;;;;5027706;28;43328;-77
2023/06/26 07:41:50;;;;;;;5.37;4.97;;;24.50;70.50;;;;;;5028641;28;43391;-78
2023/06/26 07:44:18;;;;;;;5.10;4.80;;;24.50;70.80;;;;;;5027071;28;43507;-75
2023/06/26 07:46:48;;;;;;;5.32;4.93;;;24.50;70.80;;;;;;5028283;28;43850;-77
2023/06/26 07:49:16;;;;;;;4.55;4.25;;;24.50;70.70;;;;;;5028143;28;43447;-77
2023/06/26 07:51:46;;;;;;;4.90;4.60;;;24.50;70.80;;;;;;5026572;28;43447;-76
2023/06/26 07:54:14;;;;;;;4.78;4.47;;;24.40;71.00;;;;;;5028394;28;43371;-77
2023/06/26 07:56:55;;;;;;;5.07;4.68;;;24.50;71.00;;;;;;5028442;28;43874;-78
2023/06/26 07:59:24;;;;;;;4.55;4.22;;;24.50;70.70;;;;;;5022122;28;43361;-75
2023/06/26 08:01:57;;;;;;;4.47;4.28;;;24.70;70.50;;;;;;5021203;28;43430;-76
2023/06/26 08:04:27;;;;;;;4.88;4.57;;;24.80;70.10;;;;;;5030435;28;44112;-76
2023/06/26 08:06:56;;;;;;;4.78;4.47;;;24.80;69.80;;;;;;5048418;28;43871;-77
2023/06/26 08:09:30;;;;;;;4.77;4.47;;;24.80;69.90;;;;;;5048281;28;43452;-77
2023/06/26 08:11:58;;;;;;;4.68;4.38;;;24.70;70.80;;;;;;5030111;28;43519;-77
2023/06/26 08:14:27;;;;;;;4.65;4.40;;;24.70;70.30;;;;;;5048557;28;43451;-76
2023/06/26 08:16:56;;;;;;;4.60;4.30;;;24.60;70.30;;;;;;5029669;28;45354;-77
2023/06/26 08:19:24;;;;;;;4.20;4.00;;;24.60;70.30;;;;;;5030403;28;44419;-76
2023/06/26 08:21:58;;;;;;;4.50;4.30;;;24.50;70.40;;;;;;5048087;28;43408;-76
2023/06/26 08:24:32;;;;;;;4.28;4.03;;;24.50;70.70;;;;;;5048500;28;43428;-77
2023/06/26 08:27:04;;;;;;;4.45;4.25;;;24.50;70.60;;;;;;5047885;28;44523;-74
2023/06/26 08:29:37;;;;;;;4.53;4.23;;;24.50;70.60;;;;;;5045448;28;44020;-76
2023/06/26 08:32:08;;;;;;;4.28;4.00;;;24.50;70.70;;;;;;5028700;28;43409;-76
2023/06/26 08:34:38;;;;;;;4.35;4.15;;;24.40;71.00;;;;;;5048399;28;43343;-77
2023/06/26 08:37:09;;;;;;;4.00;3.80;;;24.50;71.00;;;;;;5029640;28;45760;-77
2023/06/26 08:39:40;;;;;;;4.00;3.80;;;24.60;70.80;;;;;;5029457;28;44309;-76
2023/06/26 08:42:10;;;;;;;4.47;4.18;;;24.70;70.40;;;;;;5029130;28;43387;-77
2023/06/26 08:44:45;;;;;;;4.05;3.85;;;24.80;70.10;;;;;;5030018;28;43463;-75
2023/06/26 08:47:34;;;;;;;3.78;3.60;;;24.80;69.80;;;;;;5047710;28;43996;-75
2023/06/26 08:50:08;;;;;;;4.80;4.60;;;24.70;69.80;;;;;;5028823;28;45497;-75
2023/06/26 08:52:50;;;;;;;4.22;4.03;;;24.70;70.30;;;;;;5047857;28;43528;-76
2023/06/26 08:55:24;;;;;;;3.83;3.63;;;24.60;70.40;;;;;;5026615;28;44037;-76
2023/06/26 08:57:53;;;;;;;4.18;3.88;;;24.60;70.40;;;;;;5044492;28;43863;-77
2023/06/26 09:00:21;;;;;;;4.10;3.90;;;24.50;70.40;;;;;;5029774;28;44626;-77
2023/06/26 09:02:53;;;;;;;3.97;3.80;;;24.50;70.80;;;;;;5046659;28;43536;-77
2023/06/26 09:05:22;;;;;;;4.30;4.03;;;24.50;70.90;;;;;;5029771;28;43490;-77
2023/06/26 09:07:51;;;;;;;3.53;3.43;;;24.50;70.80;;;;;;5029089;28;46014;-76
2023/06/26 09:10:20;;;;;;;3.80;3.70;;;24.50;70.80;;;;;;5028944;28;46407;-78
2023/06/26 09:12:49;;;;;;;3.63;3.53;;;24.40;70.80;;;;;;5029559;28;43484;-76
2023/06/26 09:15:19;;;;;;;3.75;3.55;;;24.40;71.20;;;;;;5047576;28;43375;-77
2023/06/26 09:17:51;;;;;;;3.92;3.72;;;24.40;71.00;;;;;;5047390;28;44009;-77
2023/06/26 09:20:19;;;;;;;3.78;3.67;;;24.50;70.70;;;;;;5047072;28;44224;-76
2023/06/26 09:22:49;;;;;;;3.95;3.75;;;24.60;70.30;;;;;;5027607;28;43497;-77
2023/06/26 09:25:17;;;;;;;3.92;3.72;;;24.70;70.20;;;;;;5044358;28;43989;-77
2023/06/26 09:27:48;;;;;;;3.50;3.30;;;24.70;70.10;;;;;;5045364;28;43734;-78
2023/06/26 09:30:18;;;;;;;4.00;3.80;;;24.70;70.10;;;;;;5047089;28;43422;-78
2023/06/26 09:32:47;;;;;;;3.53;3.43;;;24.60;70.50;;;;;;5029543;28;43460;-77
2023/06/26 09:35:18;;;;;;;3.60;3.50;;;24.60;70.60;;;;;;5047362;28;43471;-76
2023/06/26 09:37:50;;;;;;;3.67;3.58;;;24.60;70.60;;;;;;5029269;28;45698;-76
2023/06/26 09:40:18;;;;;;;3.83;3.67;;;24.50;70.60;;;;;;5045825;28;43313;-77
2023/06/26 09:42:51;;;;;;;3.87;3.67;;;24.50;70.90;;;;;;5046720;28;43981;-77
2023/06/26 09:45:20;;;;;;;4.03;3.90;;;24.40;71.00;;;;;;5047382;28;44083;-77
2023/06/26 09:47:49;;;;;;;3.63;3.53;;;24.50;71.00;;;;;;5046173;28;43861;-76
2023/06/26 09:50:27;;;;;;;3.90;3.70;;;24.40;70.90;;;;;;5046856;28;43966;-77
2023/06/26 09:53:00;;;;;;;3.77;3.60;;;24.40;71.10;;;;;;5043370;28;43464;-77
2023/06/26 09:55:36;;;;;;;3.37;3.27;;;24.40;71.30;;;;;;5046664;28;43287;-77
2023/06/26 09:58:14;;;;;;;3.23;3.13;;;24.50;71.10;;;;;;5031102;28;44109;-77
2023/06/26 10:00:45;;;;;;;3.22;3.13;;;24.60;70.80;;;;;;5046671;28;43854;-76
2023/06/26 10:03:14;;;;;;;3.63;3.53;;;24.70;70.40;;;;;;5060975;28;43454;-75
2023/06/26 10:05:46;;;;;;;3.20;3.10;;;24.70;70.20;;;;;;5031848;28;43685;-78
2023/06/26 10:08:14;;;;;;;3.57;3.40;;;24.70;70.20;;;;;;5050248;28;43606;-77
2023/06/26 10:10:45;;;;;;;3.10;3.00;;;24.70;70.40;;;;;;5031604;28;44701;-77
2023/06/26 10:13:17;;;;;;;3.60;3.40;;;24.60;70.60;;;;;;5032088;28;44034;-76
2023/06/26 10:15:45;;;;;;;3.30;3.20;;;24.60;70.60;;;;;;5050661;28;43501;-77
2023/06/26 10:18:13;;;;;;;2.97;2.87;;;24.50;70.60;;;;;;5049609;28;43869;-75
2023/06/26 10:20:48;;;;;;;3.40;3.30;;;24.50;70.60;;;;;;5031887;28;44888;-76
2023/06/26 10:35:24;;;;;;;2.90;2.80;;;24.40;71.30;;;;;;5062899;28;44572;-76
2023/06/26 10:38:16;;;;;;;3.00;2.90;;;24.40;71.30;;;;;;5033030;28;43372;-76
2023/06/26 10:40:49;;;;;;;3.00;2.90;;;24.40;71.20;;;;;;5050058;28;43887;-78
2023/06/26 10:43:25;;;;;;;2.93;2.90;;;24.40;71.30;;;;;;5030496;28;46198;-77
2023/06/26 10:46:30;;;;;;;2.90;2.80;;;24.40;71.50;;;;;;5051677;28;43452;-76
2023/06/26 10:49:11;;;;;;;3.13;3.03;;;24.40;71.30;;;;;;5048011;28;43499;-76
2023/06/26 10:55:32;;;;;;;3.10;3.00;;;24.70;70.50;;;;;;5044081;28;43917;-77
2023/06/26 10:58:54;;;;;;;2.87;2.80;;;24.70;70.20;;;;;;5043614;28;43447;-76
2023/06/26 11:01:44;;;;;;;3.10;3.00;;;24.70;70.30;;;;;;5052670;28;43403;-75
2023/06/26 11:04:41;;;;;;;2.87;2.77;;;24.70;70.60;;;;;;5020884;28;44096;-78
2023/06/26 11:11:14;;;;;;;2.87;2.77;;;24.60;70.60;;;;;;5026634;28;43436;-78
2023/06/26 11:14:03;;;;;;;2.67;2.60;;;24.50;71.00;;;;;;5028136;28;43423;-76
2023/06/26 11:17:14;;;;;;;3.03;2.93;;;24.50;71.10;;;;;;5026214;28;43559;-76
2023/06/26 11:20:04;;;;;;;3.07;2.97;;;24.50;71.10;;;;;;5026570;28;46014;-78
2023/06/26 11:22:52;;;;;;;2.77;2.70;;;24.40;71.00;;;;;;5023247;28;44402;-77
2023/06/26 11:25:45;;;;;;;2.93;2.83;;;24.40;71.40;;;;;;5027976;28;43698;-77
2023/06/26 11:28:38;;;;;;;2.60;2.50;;;24.50;71.20;;;;;;5028015;28;43889;-77
2023/06/26 11:31:46;;;;;;;2.57;2.50;;;24.60;70.90;;;;;;5026844;28;43920;-77
2023/06/26 11:34:22;;;;;;;2.53;2.53;;;24.70;70.40;;;;;;5025923;28;43436;-77
2023/06/26 11:37:01;;;;;;;3.30;3.13;;;24.70;70.30;;;;;;5031758;28;43433;-76
2023/06/26 11:39:37;;;;;;;2.90;2.80;;;24.70;70.30;;;;;;5026025;28;43390;-78
2023/06/26 11:42:14;;;;;;;2.70;2.70;;;24.60;70.70;;;;;;5028310;28;43695;-74
2023/06/26 11:44:49;;;;;;;2.60;2.50;;;24.60;70.80;;;;;;5028324;28;43487;-77
2023/06/26 11:47:17;;;;;;;2.50;2.50;;;24.60;70.80;;;;;;5053628;28;43412;-78
2023/06/26 11:49:47;;;;;;;2.47;2.47;;;24.50;70.60;;;;;;5026940;28;43949;-79
2023/06/26 11:52:29;;;;;;;2.67;2.57;;;24.50;71.10;;;;;;5026428;28;45713;-76
2023/06/26 11:55:49;;;;;;;2.87;2.77;;;24.40;70.90;;;;;;5028117;28;43488;-77
2023/06/26 11:58:42;;;;;;;2.50;2.40;;;24.40;70.30;;;;;;5027311;28;44076;-78
2023/06/26 12:01:44;;;;;;;3.20;3.10;;;24.40;70.90;;;;;;5025309;28;43949;-75
2023/06/26 12:04:35;;;;;;;3.07;2.97;;;24.40;70.90;;;;;;5048376;28;45401;-76
2023/06/26 12:07:38;;;;;;;2.80;2.70;;;24.50;70.80;;;;;;5026192;28;44885;-77
2023/06/26 12:10:21;;;;;;;2.70;2.70;;;24.60;70.60;;;;;;5026960;28;43379;-78
2023/06/26 12:12:58;;;;;;;2.70;2.60;;;24.70;70.00;;;;;;5026883;28;43911;-76
2023/06/26 12:15:31;;;;;;;2.40;2.40;;;24.70;70.00;;;;;;5024456;28;43609;-76
2023/06/26 12:18:00;;;;;;;2.43;2.33;;;24.70;70.00;;;;;;5049815;28;44541;-77
2023/06/26 12:20:32;;;;;;;2.40;2.40;;;24.60;70.40;;;;;;5026705;28;43980;-75
2023/06/26 12:23:02;;;;;;;2.40;2.40;;;24.50;70.50;;;;;;5026856;28;43442;-76
2023/06/26 12:25:34;;;;;;;2.50;2.50;;;24.50;71.10;;;;;;5027187;28;44920;-74
2023/06/26 12:28:04;;;;;;;2.60;2.57;;;24.50;69.60;;;;;;5023344;28;44099;-77
2023/06/26 12:30:38;;;;;;;2.40;2.40;;;24.50;70.70;;;;;;5025330;28;43349;-76
2023/06/26 12:33:31;;;;;;;2.50;2.50;;;24.50;70.80;;;;;;5026966;28;43403;-73
2023/06/26 12:36:00;;;;;;;2.53;2.33;;;24.40;70.00;;;;;;5023552;28;43810;-76
2023/06/26 12:38:34;;;;;;;2.37;2.37;;;24.40;70.10;;;;;;5026298;28;43425;-76
2023/06/26 12:41:02;;;;;;;2.37;2.37;;;24.40;70.60;;;;;;5025522;28;43425;-74
2023/06/26 12:43:30;;;;;;;2.93;2.83;;;24.40;70.60;;;;;;5026186;28;43484;-76
2023/06/26 12:45:58;;;;;;;2.17;2.17;;;24.40;70.60;;;;;;5027565;28;43793;-75
2023/06/26 12:48:39;;;;;;;2.53;2.47;;;24.50;70.40;;;;;;5022245;28;44705;-77
2023/06/26 12:51:10;;;;;;;2.65;2.55;;;24.70;70.00;;;;;;5020603;28;43507;-76
2023/06/26 12:53:39;;;;;;;2.50;2.50;;;24.70;69.80;;;;;;5024702;28;43401;-73
2023/06/26 12:56:08;;;;;;;2.15;2.10;;;24.70;69.20;;;;;;5027325;28;44019;-77
2023/06/26 12:58:36;;;;;;;2.30;2.30;;;24.60;69.50;;;;;;5026053;28;44742;-76
2023/06/26 13:01:04;;;;;;;2.30;2.30;;;24.60;70.30;;;;;;5025773;28;43477;-75
2023/06/26 13:03:33;;;;;;;2.43;2.33;;;24.50;69.90;;;;;;5037839;28;43473;-75
2023/06/26 13:06:05;;;;;;;2.07;2.07;;;24.50;70.10;;;;;;5047359;28;43864;-75
2023/06/26 13:08:34;;;;;;;2.20;2.20;;;24.50;69.90;;;;;;5046488;28;43556;-75
2023/06/26 13:11:02;;;;;;;2.10;2.10;;;24.50;70.60;;;;;;5044438;28;43432;-77
2023/06/26 13:13:30;;;;;;;2.03;2.03;;;24.40;70.60;;;;;;5029294;28;43435;-76
2023/06/26 13:15:58;;;;;;;2.40;2.40;;;24.40;70.50;;;;;;5026283;28;45798;-76
2023/06/26 13:18:26;;;;;;;2.20;2.20;;;24.40;70.20;;;;;;5028625;28;43464;-78
2023/06/26 13:20:54;;;;;;;2.10;2.10;;;24.40;70.80;;;;;;5026878;28;43474;-75
2023/06/26 13:23:24;;;;;;;2.30;2.30;;;24.40;70.90;;;;;;5047501;28;43389;-75
2023/06/26 13:25:52;;;;;;;1.85;1.85;;;24.40;70.60;;;;;;5057909;28;45391;-74
2023/06/26 13:28:20;;;;;;;2.08;2.08;;;24.40;70.30;;;;;;5046417;28;43439;-78
2023/06/26 13:30:51;;;;;;;2.23;2.23;;;24.40;70.60;;;;;;5026865;28;43408;-74
2023/06/26 13:33:20;;;;;;;2.17;2.17;;;24.40;70.90;;;;;;5029806;28;43535;-76